createdAt,value
2018-07-16T00:01:27.097Z,20.40
2018-07-16T00:03:55.981Z,20.40
2018-07-16T00:06:24.881Z,20.50
2018-07-16T00:08:53.769Z,20.50
2018-07-16T00:11:22.653Z,20.60
2018-07-16T00:13:51.544Z,20.50
2018-07-16T00:16:20.406Z,20.50
2018-07-16T00:18:49.304Z,20.60
2018-07-16T00:21:19.017Z,20.50
2018-07-16T00:23:47.924Z,20.50
2018-07-16T00:26:16.817Z,20.40
2018-07-16T00:28:45.705Z,20.30
2018-07-16T00:31:14.598Z,20.30
2018-07-16T00:33:43.501Z,20.30
2018-07-16T00:36:12.497Z,20.30
2018-07-16T00:38:41.384Z,20.30
2018-07-16T00:41:10.295Z,20.30
2018-07-16T00:43:39.189Z,20.30
2018-07-16T00:46:08.135Z,20.30
2018-07-16T00:48:37.036Z,20.30
2018-07-16T00:51:05.955Z,20.30
2018-07-16T00:53:34.826Z,20.30
2018-07-16T00:56:03.840Z,20.20
2018-07-16T00:58:32.706Z,20.10
2018-07-16T01:01:01.597Z,20.10
2018-07-16T01:03:30.496Z,20.10
2018-07-16T01:05:59.397Z,20.10
2018-07-16T01:08:28.255Z,20.10
2018-07-16T01:10:57.145Z,20.10
2018-07-16T01:13:26.085Z,20.10
2018-07-16T01:15:54.948Z,20.10
2018-07-16T01:18:23.835Z,20.20
2018-07-16T01:20:52.736Z,20.20
2018-07-16T01:23:21.632Z,20.10
2018-07-16T01:25:50.524Z,20.10
2018-07-16T01:28:19.402Z,20.10
2018-07-16T01:30:48.307Z,20.00
2018-07-16T01:33:17.186Z,19.90
2018-07-16T01:35:46.165Z,19.80
2018-07-16T01:38:15.071Z,19.80
2018-07-16T01:40:43.940Z,19.70
2018-07-16T01:43:12.857Z,19.70
2018-07-16T01:45:41.834Z,19.70
2018-07-16T01:48:10.749Z,19.70
2018-07-16T01:50:39.669Z,19.60
2018-07-16T01:53:08.596Z,19.60
2018-07-16T01:55:37.500Z,19.70
2018-07-16T01:58:06.521Z,19.70
2018-07-16T02:00:45.670Z,19.70
2018-07-16T02:03:14.617Z,19.80
2018-07-16T02:05:43.697Z,19.70
2018-07-16T02:08:12.725Z,19.70
2018-07-16T02:10:41.834Z,19.80
2018-07-16T02:13:10.738Z,19.70
2018-07-16T02:15:40.080Z,19.80
2018-07-16T02:18:09.235Z,19.80
2018-07-16T02:20:38.472Z,19.60
2018-07-16T02:23:07.375Z,19.60
2018-07-16T02:25:36.547Z,19.60
2018-07-16T02:28:05.901Z,19.50
2018-07-16T02:30:35.217Z,19.50
2018-07-16T02:33:04.273Z,19.40
2018-07-16T02:35:33.211Z,19.40
2018-07-16T02:38:02.189Z,19.40
2018-07-16T02:40:31.392Z,19.40
2018-07-16T02:43:00.341Z,19.40
2018-07-16T02:45:29.253Z,19.40
2018-07-16T02:47:58.642Z,19.40
2018-07-16T02:50:28.146Z,19.40
2018-07-16T02:52:57.062Z,19.40
2018-07-16T02:55:26.048Z,19.40
2018-07-16T02:57:55.036Z,19.40
2018-07-16T03:00:24.001Z,19.30
2018-07-16T03:02:52.945Z,19.30
2018-07-16T03:05:22.142Z,19.40
2018-07-16T03:07:51.090Z,19.40
2018-07-16T03:10:20.229Z,19.40
2018-07-16T03:12:49.293Z,19.40
2018-07-16T03:15:18.180Z,19.30
2018-07-16T03:17:47.200Z,19.30
2018-07-16T03:20:16.258Z,19.30
2018-07-16T03:22:45.165Z,19.50
2018-07-16T03:25:14.083Z,19.50
2018-07-16T03:27:43.163Z,19.40
2018-07-16T03:30:12.076Z,19.40
2018-07-16T03:32:41.035Z,19.40
2018-07-16T03:35:10.094Z,19.40
2018-07-16T03:37:39.094Z,19.40
2018-07-16T03:40:08.044Z,19.40
2018-07-16T03:42:37.003Z,19.40
2018-07-16T03:45:06.065Z,19.40
2018-07-16T03:47:35.644Z,19.50
2018-07-16T03:50:04.609Z,19.50
2018-07-16T03:52:33.497Z,19.60
2018-07-16T03:55:02.392Z,19.50
2018-07-16T03:57:31.276Z,19.40
2018-07-16T04:00:00.170Z,19.40
2018-07-16T04:02:29.090Z,19.50
2018-07-16T04:04:57.964Z,19.50
2018-07-16T04:07:27.117Z,19.60
2018-07-16T04:09:56.009Z,19.60
2018-07-16T04:12:24.889Z,19.60
2018-07-16T04:14:53.780Z,19.60
2018-07-16T04:17:22.654Z,19.60
2018-07-16T04:19:51.505Z,19.50
2018-07-16T04:22:20.375Z,19.50
2018-07-16T04:24:49.690Z,19.40
2018-07-16T04:27:18.577Z,19.50
2018-07-16T04:29:47.464Z,19.60
2018-07-16T04:32:16.488Z,19.60
2018-07-16T04:34:45.353Z,19.60
2018-07-16T04:37:14.245Z,19.60
2018-07-16T04:39:43.187Z,19.70
2018-07-16T04:42:12.057Z,19.60
2018-07-16T04:44:41.138Z,19.60
2018-07-16T04:47:10.236Z,19.70
2018-07-16T04:49:39.182Z,19.70
2018-07-16T04:52:08.207Z,19.70
2018-07-16T04:54:37.105Z,19.70
2018-07-16T04:57:06.098Z,19.90
2018-07-16T04:59:35.000Z,19.90
2018-07-16T05:02:03.957Z,20.00
2018-07-16T05:04:32.848Z,20.00
2018-07-16T05:07:01.760Z,20.20
2018-07-16T05:09:30.635Z,20.10
2018-07-16T05:11:59.524Z,20.10
2018-07-16T05:14:28.399Z,20.00
2018-07-16T05:16:57.357Z,20.00
2018-07-16T05:19:26.348Z,20.10
2018-07-16T05:21:55.199Z,20.10
2018-07-16T05:24:24.062Z,20.10
2018-07-16T05:26:52.953Z,20.10
2018-07-16T05:29:21.843Z,20.20
2018-07-16T05:31:50.791Z,20.20
2018-07-16T05:34:19.616Z,20.20
2018-07-16T05:36:48.565Z,20.20
2018-07-16T05:39:17.571Z,20.20
2018-07-16T05:41:46.432Z,20.30
2018-07-16T05:44:15.312Z,20.30
2018-07-16T05:46:44.284Z,20.40
2018-07-16T05:49:13.274Z,20.30
2018-07-16T05:51:42.359Z,20.40
2018-07-16T05:54:11.360Z,20.40
2018-07-16T05:56:40.296Z,20.40
2018-07-16T05:59:09.209Z,20.50
2018-07-16T06:01:38.174Z,20.70
2018-07-16T06:04:07.096Z,20.60
2018-07-16T06:06:36.092Z,20.80
2018-07-16T06:09:05.881Z,20.90
2018-07-16T06:11:34.827Z,20.70
2018-07-16T06:14:03.684Z,20.60
2018-07-16T06:16:32.552Z,20.60
2018-07-16T06:19:01.421Z,20.60
2018-07-16T06:21:30.387Z,20.80
2018-07-16T06:23:59.334Z,20.90
2018-07-16T06:26:28.310Z,20.90
2018-07-16T06:28:57.337Z,21.00
2018-07-16T06:31:26.312Z,20.90
2018-07-16T06:33:55.206Z,20.90
2018-07-16T06:36:24.288Z,20.90
2018-07-16T06:38:53.636Z,21.00
2018-07-16T06:41:22.891Z,21.00
2018-07-16T06:43:51.565Z,20.90
2018-07-16T06:46:20.730Z,21.00
2018-07-16T06:48:49.733Z,20.90
2018-07-16T06:51:18.799Z,20.90
2018-07-16T06:53:47.791Z,21.00
2018-07-16T06:56:16.839Z,21.10
2018-07-16T06:58:45.930Z,21.10
2018-07-16T07:01:14.883Z,21.10
2018-07-16T07:03:43.894Z,20.90
2018-07-16T07:06:13.018Z,21.00
2018-07-16T07:08:42.135Z,21.10
2018-07-16T07:11:11.309Z,21.10
2018-07-16T07:13:40.340Z,21.00
2018-07-16T07:16:09.422Z,20.90
2018-07-16T07:18:38.549Z,21.10
2018-07-16T07:21:07.631Z,21.10
2018-07-16T07:23:36.827Z,21.00
2018-07-16T07:26:05.860Z,21.00
2018-07-16T07:28:34.766Z,21.00
2018-07-16T07:31:03.804Z,21.10
2018-07-16T07:33:32.705Z,21.10
2018-07-16T07:36:01.727Z,21.10
2018-07-16T07:38:30.670Z,21.10
2018-07-16T07:40:59.609Z,21.10
2018-07-16T07:43:28.499Z,21.10
2018-07-16T07:45:57.390Z,21.20
2018-07-16T07:48:26.300Z,21.20
2018-07-16T07:50:55.154Z,21.10
2018-07-16T07:53:24.062Z,21.10
2018-07-16T07:55:53.024Z,21.10
2018-07-16T07:58:21.979Z,21.20
2018-07-16T08:00:50.900Z,21.30
2018-07-16T08:03:19.867Z,21.30
2018-07-16T08:05:54.215Z,21.30
2018-07-16T08:08:23.120Z,21.10
2018-07-16T08:10:51.998Z,21.10
2018-07-16T08:13:20.942Z,21.20
2018-07-16T08:15:49.820Z,21.20
2018-07-16T08:18:18.669Z,21.50
2018-07-16T08:20:47.837Z,21.30
2018-07-16T08:23:16.697Z,21.20
2018-07-16T08:25:45.645Z,21.20
2018-07-16T08:28:14.588Z,21.30
2018-07-16T08:30:43.455Z,21.20
2018-07-16T08:33:12.293Z,21.00
2018-07-16T08:35:41.162Z,21.10
2018-07-16T08:38:10.128Z,21.10
2018-07-16T08:40:39.040Z,21.10
2018-07-16T08:43:08.082Z,21.10
2018-07-16T08:45:37.026Z,21.30
2018-07-16T08:48:06.160Z,21.20
2018-07-16T08:50:35.157Z,21.10
2018-07-16T08:53:04.012Z,21.00
2018-07-16T08:55:32.889Z,21.00
2018-07-16T08:58:01.756Z,21.00
2018-07-16T09:00:30.648Z,21.00
2018-07-16T09:02:59.547Z,21.00
2018-07-16T09:05:28.416Z,21.10
2018-07-16T09:07:57.300Z,21.20
2018-07-16T09:10:26.194Z,21.30
2018-07-16T09:12:55.172Z,21.20
2018-07-16T09:15:24.044Z,21.10
2018-07-16T09:17:52.908Z,21.10
2018-07-16T09:20:21.794Z,21.10
2018-07-16T09:22:50.669Z,21.00
2018-07-16T09:25:19.686Z,21.10
2018-07-16T09:27:48.572Z,21.10
2018-07-16T09:30:17.463Z,21.00
2018-07-16T09:32:46.443Z,21.10
2018-07-16T09:35:15.291Z,21.10
2018-07-16T09:37:44.243Z,21.10
2018-07-16T09:40:13.282Z,21.00
2018-07-16T09:42:42.275Z,21.00
2018-07-16T09:45:11.218Z,21.10
2018-07-16T09:47:40.159Z,21.30
2018-07-16T09:50:09.085Z,21.20
2018-07-16T09:52:38.096Z,21.10
2018-07-16T09:55:07.172Z,21.10
2018-07-16T09:57:36.132Z,21.10
2018-07-16T10:00:05.247Z,21.10
2018-07-16T10:02:34.136Z,21.10
2018-07-16T10:05:02.996Z,21.10
2018-07-16T10:07:31.891Z,21.10
2018-07-16T10:10:00.807Z,21.20
2018-07-16T10:12:29.698Z,21.20
2018-07-16T10:14:58.600Z,21.00
2018-07-16T10:17:27.479Z,21.00
2018-07-16T10:19:56.407Z,21.00
2018-07-16T10:22:25.247Z,21.60
2018-07-16T10:24:54.112Z,22.40
2018-07-16T10:27:23.029Z,21.90
2018-07-16T10:29:51.893Z,21.50
2018-07-16T10:32:20.782Z,21.20
2018-07-16T10:34:49.728Z,21.10
2018-07-16T10:37:18.676Z,21.10
2018-07-16T10:39:47.603Z,21.00
2018-07-16T10:44:45.063Z,21.20
2018-07-16T10:47:13.960Z,21.10
2018-07-16T10:49:43.006Z,21.00
2018-07-16T10:52:12.112Z,21.00
2018-07-16T10:54:41.778Z,21.00
2018-07-16T10:57:11.194Z,21.00
2018-07-16T10:59:40.165Z,21.00
2018-07-16T11:04:37.688Z,21.00
2018-07-16T11:07:06.589Z,21.00
2018-07-16T11:09:35.493Z,21.00
2018-07-16T11:12:04.422Z,21.00
2018-07-16T11:14:33.308Z,21.00
2018-07-16T11:17:02.162Z,20.90
2018-07-16T11:19:31.061Z,21.00
2018-07-16T11:22:00.027Z,21.00
2018-07-16T11:24:28.916Z,20.90
2018-07-16T11:26:57.779Z,21.10
2018-07-16T11:29:26.709Z,21.20
2018-07-16T11:31:55.613Z,21.50
2018-07-16T11:34:24.509Z,21.90
2018-07-16T11:36:53.389Z,21.40
2018-07-16T11:39:22.289Z,21.30
2018-07-16T11:41:51.172Z,21.10
2018-07-16T11:44:20.052Z,21.40
2018-07-16T11:46:48.950Z,21.30
2018-07-16T11:49:18.025Z,21.10
2018-07-16T11:51:46.889Z,21.30
2018-07-16T11:54:15.755Z,21.40
2018-07-16T11:56:44.636Z,21.30
2018-07-16T11:59:13.624Z,22.00
2018-07-16T12:01:42.763Z,21.60
2018-07-16T12:04:11.627Z,21.30
2018-07-16T12:06:40.576Z,21.10
2018-07-16T12:09:09.613Z,21.00
2018-07-16T12:11:38.577Z,21.10
2018-07-16T12:14:07.603Z,21.00
2018-07-16T12:16:36.538Z,21.00
2018-07-16T12:19:05.460Z,21.10
2018-07-16T12:21:34.375Z,21.70
2018-07-16T12:24:03.273Z,21.30
2018-07-16T12:26:32.156Z,21.10
2018-07-16T12:29:01.021Z,21.10
2018-07-16T12:33:58.577Z,21.10
2018-07-16T12:36:27.481Z,21.10
2018-07-16T12:38:56.344Z,21.00
2018-07-16T12:41:25.293Z,21.10
2018-07-16T12:43:54.128Z,21.00
2018-07-16T12:46:23.028Z,21.00
2018-07-16T12:48:51.900Z,21.00
2018-07-16T12:51:20.855Z,21.00
2018-07-16T12:53:49.729Z,21.00
2018-07-16T12:56:18.583Z,21.00
2018-07-16T12:58:47.460Z,21.00
2018-07-16T13:01:16.388Z,21.00
2018-07-16T13:03:45.360Z,21.20
2018-07-16T13:06:17.239Z,21.10
2018-07-16T13:08:46.025Z,21.20
2018-07-16T13:11:14.881Z,21.10
2018-07-16T13:13:43.874Z,21.30
2018-07-16T13:16:12.844Z,21.20
2018-07-16T13:18:42.120Z,21.10
2018-07-16T13:21:11.077Z,21.10
2018-07-16T13:23:40.104Z,21.10
2018-07-16T13:26:08.994Z,21.10
2018-07-16T13:28:38.090Z,21.10
2018-07-16T13:33:35.873Z,21.10
2018-07-16T13:36:04.767Z,21.10
2018-07-16T13:38:33.652Z,21.10
2018-07-16T13:41:02.548Z,21.10
2018-07-16T13:43:31.401Z,21.10
2018-07-16T13:46:00.316Z,21.10
2018-07-16T13:48:29.183Z,21.10
2018-07-16T13:50:58.097Z,21.30
2018-07-16T13:53:27.000Z,21.30
2018-07-16T13:55:55.856Z,21.20
2018-07-16T13:58:24.820Z,21.10
2018-07-16T14:00:53.664Z,21.10
2018-07-16T14:03:22.537Z,21.20
2018-07-16T14:08:19.925Z,21.50
2018-07-16T14:10:48.828Z,21.20
2018-07-16T14:13:17.707Z,21.10
2018-07-16T14:15:46.592Z,21.10
2018-07-16T14:18:15.596Z,21.10
2018-07-16T14:20:44.458Z,21.10
2018-07-16T14:23:13.376Z,21.10
2018-07-16T14:25:42.300Z,21.10
2018-07-16T14:28:11.257Z,21.10
2018-07-16T14:30:40.166Z,21.10
2018-07-16T14:33:09.176Z,21.20
2018-07-16T14:35:38.080Z,21.20
2018-07-16T14:38:07.207Z,21.20
2018-07-16T14:40:36.159Z,21.10
2018-07-16T14:43:05.057Z,21.10
2018-07-16T14:45:34.147Z,21.10
2018-07-16T14:48:03.036Z,21.10
2018-07-16T14:50:31.988Z,21.10
2018-07-16T14:53:00.838Z,21.10
2018-07-16T14:55:29.780Z,21.20
2018-07-16T14:57:58.649Z,21.10
2018-07-16T15:00:27.549Z,21.20
2018-07-16T15:02:56.433Z,21.20
2018-07-16T15:05:25.299Z,21.20
2018-07-16T15:08:00.664Z,21.20
2018-07-16T15:10:29.537Z,21.10
2018-07-16T15:12:58.400Z,21.20
2018-07-16T15:15:27.293Z,21.20
2018-07-16T15:17:56.138Z,21.20
2018-07-16T15:20:25.285Z,21.20
2018-07-16T15:22:53.984Z,21.20
2018-07-16T15:25:22.905Z,21.20
2018-07-16T15:27:51.829Z,21.20
2018-07-16T15:30:20.763Z,21.20
2018-07-16T15:32:49.654Z,21.30
2018-07-16T15:35:18.545Z,21.30
2018-07-16T15:37:47.536Z,21.30
2018-07-16T15:40:16.442Z,21.20
2018-07-16T15:42:45.333Z,21.30
2018-07-16T15:45:14.251Z,21.30
2018-07-16T15:47:43.184Z,22.00
2018-07-16T15:50:12.132Z,21.60
2018-07-16T15:52:41.053Z,21.50
2018-07-16T15:55:10.035Z,21.40
2018-07-16T15:57:38.937Z,21.30
2018-07-16T16:00:07.840Z,21.30
2018-07-16T16:02:36.812Z,21.20
2018-07-16T16:05:05.869Z,21.20
2018-07-16T16:07:34.807Z,21.20
2018-07-16T16:10:04.119Z,21.30
2018-07-16T16:12:32.982Z,21.30
2018-07-16T16:15:01.872Z,21.30
2018-07-16T16:17:30.737Z,21.40
2018-07-16T16:19:59.724Z,21.30
2018-07-16T16:22:28.560Z,21.30
2018-07-16T16:24:57.399Z,21.30
2018-07-16T16:27:26.325Z,21.30
2018-07-16T16:29:55.218Z,21.30
2018-07-16T16:32:24.154Z,21.30
2018-07-16T16:34:53.013Z,21.30
2018-07-16T16:37:21.886Z,21.30
2018-07-16T16:39:50.801Z,21.30
2018-07-16T16:42:19.757Z,21.30
2018-07-16T16:44:48.819Z,21.30
2018-07-16T16:47:17.712Z,21.30
2018-07-16T16:49:46.605Z,21.40
2018-07-16T16:52:15.536Z,21.40
2018-07-16T16:54:44.564Z,21.30
2018-07-16T16:59:42.925Z,21.40
2018-07-16T17:02:12.005Z,21.30
2018-07-16T17:04:40.981Z,21.30
2018-07-16T17:07:10.009Z,21.30
2018-07-16T17:09:39.007Z,21.40
2018-07-16T17:12:08.073Z,21.40
2018-07-16T17:14:37.061Z,21.40
2018-07-16T17:17:06.025Z,21.40
2018-07-16T17:22:03.508Z,21.40
2018-07-16T17:24:32.377Z,21.40
2018-07-16T17:27:01.265Z,21.40
2018-07-16T17:29:30.202Z,21.40
2018-07-16T17:31:59.298Z,21.40
2018-07-16T17:34:28.167Z,21.40
2018-07-16T17:36:57.124Z,21.40
2018-07-16T17:39:26.026Z,21.40
2018-07-16T17:41:54.898Z,21.40
2018-07-16T17:44:24.052Z,21.40
2018-07-16T17:46:53.274Z,21.40
2018-07-16T17:49:22.166Z,21.40
2018-07-16T17:51:51.060Z,21.40
2018-07-16T17:54:19.995Z,21.40
2018-07-16T17:56:49.071Z,21.40
2018-07-16T17:59:18.083Z,21.40
2018-07-16T18:01:47.022Z,21.40
2018-07-16T18:04:15.846Z,21.40
2018-07-16T18:06:44.805Z,21.40
2018-07-16T18:09:13.802Z,21.40
2018-07-16T18:11:42.849Z,21.40
2018-07-16T18:14:11.892Z,21.40
2018-07-16T18:16:40.835Z,21.40
2018-07-16T18:19:10.566Z,21.50
2018-07-16T18:21:39.847Z,21.50
2018-07-16T18:24:09.013Z,21.40
2018-07-16T18:26:37.989Z,21.40
2018-07-16T18:29:07.032Z,21.40
2018-07-16T18:31:35.972Z,21.40
2018-07-16T18:34:05.018Z,21.50
2018-07-16T18:36:34.112Z,21.50
2018-07-16T18:39:03.059Z,21.50
2018-07-16T18:41:32.069Z,21.50
2018-07-16T18:44:00.888Z,21.50
2018-07-16T18:46:29.845Z,21.50
2018-07-16T18:48:58.967Z,21.50
2018-07-16T18:51:27.868Z,21.60
2018-07-16T18:53:56.747Z,21.60
2018-07-16T18:56:25.640Z,21.60
2018-07-16T18:58:55.528Z,21.60
2018-07-16T19:01:24.418Z,21.60
2018-07-16T19:03:53.320Z,21.60
2018-07-16T19:06:22.213Z,21.60
2018-07-16T19:08:51.077Z,21.60
2018-07-16T19:11:19.997Z,21.60
2018-07-16T19:13:48.962Z,21.60
2018-07-16T19:16:17.842Z,21.60
2018-07-16T19:21:15.225Z,21.70
2018-07-16T19:23:44.112Z,21.70
2018-07-16T19:26:13.031Z,21.70
2018-07-16T19:28:42.154Z,21.70
2018-07-16T19:31:10.998Z,21.70
2018-07-16T19:33:39.922Z,21.70
2018-07-16T19:36:08.892Z,21.80
2018-07-16T19:38:37.926Z,21.80
2018-07-16T19:41:06.809Z,21.80
2018-07-16T19:43:35.690Z,21.80
2018-07-16T19:46:04.548Z,21.80
2018-07-16T19:48:34.225Z,21.80
2018-07-16T19:51:03.152Z,21.90
2018-07-16T19:53:32.037Z,21.90
2018-07-16T19:56:00.876Z,21.90
2018-07-16T19:58:29.731Z,21.90
2018-07-16T20:00:58.604Z,21.90
2018-07-16T20:03:27.501Z,21.90
2018-07-16T20:05:56.461Z,21.90
2018-07-16T20:08:25.339Z,21.90
2018-07-16T20:10:54.168Z,21.90
2018-07-16T20:13:23.117Z,21.90
2018-07-16T20:15:51.960Z,21.90
2018-07-16T20:18:20.852Z,21.90
2018-07-16T20:20:55.697Z,22.00
2018-07-16T20:23:24.569Z,21.90
2018-07-16T20:28:23.738Z,21.90
2018-07-16T20:30:52.629Z,21.90
2018-07-16T20:33:21.489Z,21.90
2018-07-16T20:35:50.385Z,21.90
2018-07-16T20:38:19.474Z,22.00
2018-07-16T20:40:48.344Z,22.00
2018-07-16T20:43:17.228Z,22.00
2018-07-16T20:48:14.700Z,22.10
2018-07-16T20:50:43.644Z,22.20
2018-07-16T20:53:12.621Z,22.10
2018-07-16T20:55:41.523Z,22.10
2018-07-16T20:58:10.417Z,22.20
2018-07-16T21:00:39.317Z,22.20
2018-07-16T21:03:08.304Z,22.30
2018-07-16T21:05:37.277Z,22.30
2018-07-16T21:08:07.422Z,22.40
2018-07-16T21:10:36.357Z,22.40
2018-07-16T21:13:05.299Z,22.40
2018-07-16T21:15:34.166Z,22.40
2018-07-16T21:18:03.041Z,22.40
2018-07-16T21:20:31.961Z,22.40
2018-07-16T21:23:00.905Z,22.50
2018-07-16T21:25:29.853Z,22.50
2018-07-16T21:27:58.737Z,22.50
2018-07-16T21:30:27.654Z,22.50
2018-07-16T21:32:56.534Z,22.50
2018-07-16T21:35:25.479Z,22.50
2018-07-16T21:37:54.329Z,22.50
2018-07-16T21:40:23.259Z,22.50
2018-07-16T21:42:52.181Z,22.50
2018-07-16T21:45:21.160Z,22.50
2018-07-16T21:47:50.128Z,22.50
2018-07-16T21:50:19.132Z,22.50
2018-07-16T21:52:48.333Z,22.50
2018-07-16T21:55:17.327Z,22.50
2018-07-16T21:57:46.564Z,22.50
2018-07-16T22:00:24.180Z,22.50
2018-07-16T22:02:53.169Z,22.40
2018-07-16T22:05:22.365Z,22.50
2018-07-16T22:07:51.530Z,22.40
2018-07-16T22:10:20.419Z,22.40
2018-07-16T22:12:49.418Z,22.40
2018-07-16T22:15:23.008Z,22.40
2018-07-16T22:17:53.504Z,22.40
2018-07-16T22:20:23.522Z,22.40
2018-07-16T22:22:52.665Z,22.40
2018-07-16T22:25:22.133Z,22.40
2018-07-16T22:27:50.949Z,22.40
2018-07-16T22:30:20.073Z,22.40
2018-07-16T22:32:49.141Z,22.40
2018-07-16T22:35:18.039Z,22.30
2018-07-16T22:37:46.954Z,22.30
2018-07-16T22:40:15.806Z,22.30
2018-07-16T22:42:44.650Z,22.30
2018-07-16T22:45:13.743Z,22.40
2018-07-16T22:47:42.589Z,22.40
2018-07-16T22:52:40.059Z,22.30
2018-07-16T22:55:08.951Z,22.30
2018-07-16T22:57:37.922Z,22.30
2018-07-16T23:00:06.925Z,22.30
2018-07-16T23:02:35.853Z,22.30
2018-07-16T23:05:04.844Z,22.30
2018-07-16T23:07:33.713Z,22.30
2018-07-16T23:10:02.605Z,22.20
2018-07-16T23:12:31.483Z,22.20
2018-07-16T23:15:00.373Z,22.10
2018-07-16T23:17:29.274Z,22.10
2018-07-16T23:19:58.153Z,22.10
2018-07-16T23:22:27.046Z,22.10
2018-07-16T23:27:24.496Z,22.00
2018-07-16T23:29:54.165Z,22.00
2018-07-16T23:32:23.044Z,21.90
2018-07-16T23:34:51.937Z,21.90
2018-07-16T23:37:20.857Z,21.90
2018-07-16T23:39:49.725Z,21.90
2018-07-16T23:42:18.600Z,22.00
2018-07-16T23:44:47.469Z,21.90
2018-07-16T23:47:16.359Z,21.90
2018-07-16T23:49:45.263Z,21.90
2018-07-16T23:52:14.179Z,21.80
2018-07-16T23:54:43.384Z,21.80
2018-07-16T23:57:12.349Z,21.80
2018-07-16T23:59:41.316Z,21.90
